Terminal Aerodrome Forecast
Issued by NWS Cleveland, OH

Home | Current Version | Previous Version | Text Only | Print | Product List | Glossary On
Versions: 1 2 3 4 5 6 7 8 9 10 11 12 13 14 15 16 17 18 19
223
FTUS41 KCLE 222320
TAFCAK
TAF
KCAK 222320Z 2300/2324 22010KT P6SM OVC018
     FM230400 20008KT P6SM OVC012
      TEMPO 2304/2308 5SM BR OVC008
     FM230800 20008KT 5SM BR OVC008
      TEMPO 2308/2312 2SM BR OVC006
     FM231200 22010KT 5SM BR OVC006
     FM231600 22010KT 6SM HZ OVC012
     FM232000 26008KT P6SM OVC020=

USA.gov is the U.S. government's official web portal to all federal, state and local government web resources and services.